sensor_id;sensor_type;location;lat;lon;timestamp;pressure;altitude;pressure_sealevel;temperature;humidity
14089;BME280;7120;52.890;6.040;2022-10-13T00:00:40;101851.41;;;11.09;85.49
14089;BME280;7120;52.890;6.040;2022-10-13T00:03:07;101847.00;;;11.13;85.53
14089;BME280;7120;52.890;6.040;2022-10-13T00:05:32;101851.41;;;11.14;85.26
14089;BME280;7120;52.890;6.040;2022-10-13T00:07:58;101839.94;;;11.07;85.67
14089;BME280;7120;52.890;6.040;2022-10-13T00:10:24;101839.59;;;11.13;85.10
14089;BME280;7120;52.890;6.040;2022-10-13T00:12:49;101837.44;;;11.15;84.94
14089;BME280;7120;52.890;6.040;2022-10-13T00:15:15;101839.06;;;11.11;84.45
14089;BME280;7120;52.890;6.040;2022-10-13T00:17:40;101839.88;;;11.12;85.95
14089;BME280;7120;52.890;6.040;2022-10-13T00:20:07;101837.44;;;11.10;85.25
14089;BME280;7120;52.890;6.040;2022-10-13T00:22:33;101831.69;;;11.12;84.85
14089;BME280;7120;52.890;6.040;2022-10-13T00:24:58;101813.09;;;11.09;85.23
14089;BME280;7120;52.890;6.040;2022-10-13T00:27:24;101824.25;;;11.17;84.79
14089;BME280;7120;52.890;6.040;2022-10-13T00:29:49;101820.13;;;11.20;84.41
14089;BME280;7120;52.890;6.040;2022-10-13T00:32:15;101822.59;;;11.21;84.85
14089;BME280;7120;52.890;6.040;2022-10-13T00:34:40;101819.88;;;11.21;85.16
14089;BME280;7120;52.890;6.040;2022-10-13T00:37:06;101822.06;;;11.19;84.86
14089;BME280;7120;52.890;6.040;2022-10-13T00:39:31;101815.75;;;11.24;84.82
14089;BME280;7120;52.890;6.040;2022-10-13T00:41:57;101816.28;;;11.26;84.25
14089;BME280;7120;52.890;6.040;2022-10-13T00:47:17;101818.47;;;11.24;84.67
14089;BME280;7120;52.890;6.040;2022-10-13T00:49:43;101822.31;;;11.28;85.02
14089;BME280;7120;52.890;6.040;2022-10-13T00:52:09;101813.69;;;11.00;85.64
14089;BME280;7120;52.890;6.040;2022-10-13T00:54:35;101817.16;;;11.16;85.16
14089;BME280;7120;52.890;6.040;2022-10-13T00:57:02;101811.41;;;11.13;85.36
14089;BME280;7120;52.890;6.040;2022-10-13T00:59:28;101813.53;;;11.26;85.40
14089;BME280;7120;52.890;6.040;2022-10-13T01:01:55;101812.72;;;11.20;84.85
14089;BME280;7120;52.890;6.040;2022-10-13T01:04:24;101802.63;;;11.21;85.26
14089;BME280;7120;52.890;6.040;2022-10-13T01:06:51;101761.31;;;11.12;86.08
14089;BME280;7120;52.890;6.040;2022-10-13T01:09:17;101764.00;;;11.22;85.06
14089;BME280;7120;52.890;6.040;2022-10-13T01:14:52;101774.75;;;11.14;86.10
14089;BME280;7120;52.890;6.040;2022-10-13T01:27:48;101782.09;;;11.18;85.56
14089;BME280;7120;52.890;6.040;2022-10-13T01:30:17;101767.69;;;11.03;86.63
14089;BME280;7120;52.890;6.040;2022-10-13T01:35:46;101774.44;;;11.15;85.92
14089;BME280;7120;52.890;6.040;2022-10-13T01:38:38;101770.91;;;11.15;85.80
14089;BME280;7120;52.890;6.040;2022-10-13T01:43:37;101770.78;;;11.30;85.31
14089;BME280;7120;52.890;6.040;2022-10-13T01:46:27;101747.28;;;11.24;85.34
14089;BME280;7120;52.890;6.040;2022-10-13T01:48:57;101758.88;;;11.50;84.47
14089;BME280;7120;52.890;6.040;2022-10-13T01:51:24;101768.56;;;11.37;85.30
14089;BME280;7120;52.890;6.040;2022-10-13T01:53:51;101758.94;;;11.40;85.45
14089;BME280;7120;52.890;6.040;2022-10-13T01:56:16;101761.22;;;11.27;85.34
14089;BME280;7120;52.890;6.040;2022-10-13T01:58:42;101773.25;;;11.32;85.50
14089;BME280;7120;52.890;6.040;2022-10-13T02:06:49;101775.50;;;11.19;86.87
14089;BME280;7120;52.890;6.040;2022-10-13T02:12:01;101760.19;;;11.18;87.06
14089;BME280;7120;52.890;6.040;2022-10-13T02:14:32;101754.47;;;11.15;87.19
14089;BME280;7120;52.890;6.040;2022-10-13T02:17:03;101748.44;;;11.13;87.95
14089;BME280;7120;52.890;6.040;2022-10-13T02:19:29;101746.56;;;11.08;88.41
14089;BME280;7120;52.890;6.040;2022-10-13T02:21:57;101748.72;;;11.11;88.37
14089;BME280;7120;52.890;6.040;2022-10-13T02:24:23;101730.44;;;11.07;88.33
14089;BME280;7120;52.890;6.040;2022-10-13T02:26:49;101742.19;;;11.07;88.63
14089;BME280;7120;52.890;6.040;2022-10-13T02:29:15;101747.13;;;11.05;89.16
14089;BME280;7120;52.890;6.040;2022-10-13T02:31:42;101730.97;;;11.09;88.88
14089;BME280;7120;52.890;6.040;2022-10-13T02:34:08;101726.03;;;11.06;89.41
14089;BME280;7120;52.890;6.040;2022-10-13T02:36:35;101722.47;;;11.05;89.84
14089;BME280;7120;52.890;6.040;2022-10-13T02:39:02;101729.03;;;11.09;89.65
14089;BME280;7120;52.890;6.040;2022-10-13T02:41:27;101723.59;;;11.04;89.54
14089;BME280;7120;52.890;6.040;2022-10-13T02:43:53;101729.84;;;11.10;89.62
14089;BME280;7120;52.890;6.040;2022-10-13T02:46:18;101724.38;;;11.10;89.99
14089;BME280;7120;52.890;6.040;2022-10-13T02:48:43;101717.81;;;11.11;90.50
14089;BME280;7120;52.890;6.040;2022-10-13T02:51:09;101701.38;;;11.11;90.24
14089;BME280;7120;52.890;6.040;2022-10-13T02:53:34;101723.03;;;11.07;90.36
14089;BME280;7120;52.890;6.040;2022-10-13T02:55:59;101721.66;;;11.05;89.95
14089;BME280;7120;52.890;6.040;2022-10-13T02:58:25;101716.78;;;10.96;89.82
14089;BME280;7120;52.890;6.040;2022-10-13T03:00:50;101711.09;;;10.93;90.71
14089;BME280;7120;52.890;6.040;2022-10-13T03:03:16;101716.75;;;11.07;90.82
14089;BME280;7120;52.890;6.040;2022-10-13T03:05:41;101717.25;;;11.14;90.66
14089;BME280;7120;52.890;6.040;2022-10-13T03:08:07;101727.91;;;11.15;89.95
14089;BME280;7120;52.890;6.040;2022-10-13T03:11:15;101708.69;;;11.20;90.18
14089;BME280;7120;52.890;6.040;2022-10-13T03:13:40;101721.31;;;11.21;90.37
14089;BME280;7120;52.890;6.040;2022-10-13T03:16:06;101719.88;;;11.29;89.34
14089;BME280;7120;52.890;6.040;2022-10-13T03:18:31;101718.78;;;11.30;89.63
14089;BME280;7120;52.890;6.040;2022-10-13T03:20:58;101708.63;;;11.31;89.64
14089;BME280;7120;52.890;6.040;2022-10-13T03:23:24;101701.75;;;11.33;89.09
14089;BME280;7120;52.890;6.040;2022-10-13T03:25:50;101699.06;;;11.28;89.65
14089;BME280;7120;52.890;6.040;2022-10-13T03:28:15;101700.63;;;11.39;88.91
14089;BME280;7120;52.890;6.040;2022-10-13T03:30:40;101700.63;;;11.39;89.47
14089;BME280;7120;52.890;6.040;2022-10-13T03:33:05;101684.19;;;11.39;88.70
14089;BME280;7120;52.890;6.040;2022-10-13T03:35:31;101683.69;;;11.32;88.87
14089;BME280;7120;52.890;6.040;2022-10-13T03:37:56;101689.97;;;11.33;89.90
14089;BME280;7120;52.890;6.040;2022-10-13T03:40:22;101692.72;;;11.33;90.08
14089;BME280;7120;52.890;6.040;2022-10-13T03:42:48;101685.63;;;11.32;89.57
14089;BME280;7120;52.890;6.040;2022-10-13T03:45:14;101692.97;;;11.36;90.26
14089;BME280;7120;52.890;6.040;2022-10-13T03:47:39;101689.50;;;11.25;90.38
14089;BME280;7120;52.890;6.040;2022-10-13T03:50:05;101694.03;;;11.40;90.95
14089;BME280;7120;52.890;6.040;2022-10-13T03:52:31;101692.31;;;11.49;90.78
14089;BME280;7120;52.890;6.040;2022-10-13T03:54:56;101675.13;;;11.44;90.86
14089;BME280;7120;52.890;6.040;2022-10-13T03:57:21;101676.13;;;11.53;90.06
14089;BME280;7120;52.890;6.040;2022-10-13T03:59:47;101684.03;;;11.54;89.82
14089;BME280;7120;52.890;6.040;2022-10-13T04:02:12;101682.72;;;11.52;89.91
14089;BME280;7120;52.890;6.040;2022-10-13T04:04:37;101678.63;;;11.49;89.82
14089;BME280;7120;52.890;6.040;2022-10-13T04:07:03;101675.00;;;11.54;89.88
14089;BME280;7120;52.890;6.040;2022-10-13T04:09:29;101674.16;;;11.59;90.88
14089;BME280;7120;52.890;6.040;2022-10-13T04:11:54;101675.28;;;11.58;90.76
14089;BME280;7120;52.890;6.040;2022-10-13T04:14:20;101667.88;;;11.58;90.45
14089;BME280;7120;52.890;6.040;2022-10-13T04:16:45;101673.34;;;11.58;90.30
14089;BME280;7120;52.890;6.040;2022-10-13T04:19:12;101669.34;;;11.45;91.03
14089;BME280;7120;52.890;6.040;2022-10-13T04:21:37;101687.06;;;11.53;90.39
14089;BME280;7120;52.890;6.040;2022-10-13T04:24:04;101681.63;;;11.48;91.39
14089;BME280;7120;52.890;6.040;2022-10-13T04:26:32;101676.31;;;11.62;91.35
14089;BME280;7120;52.890;6.040;2022-10-13T04:28:58;101677.94;;;11.63;91.63
14089;BME280;7120;52.890;6.040;2022-10-13T04:31:24;101669.19;;;11.61;91.16
14089;BME280;7120;52.890;6.040;2022-10-13T04:33:52;101671.91;;;11.66;91.41
14089;BME280;7120;52.890;6.040;2022-10-13T04:36:18;101661.56;;;11.58;91.59
14089;BME280;7120;52.890;6.040;2022-10-13T04:38:44;101666.78;;;11.54;91.96
14089;BME280;7120;52.890;6.040;2022-10-13T04:41:10;101667.03;;;11.58;92.54
14089;BME280;7120;52.890;6.040;2022-10-13T04:43:36;101667.03;;;11.58;92.15
14089;BME280;7120;52.890;6.040;2022-10-13T04:46:03;101668.88;;;11.67;92.81
14089;BME280;7120;52.890;6.040;2022-10-13T04:48:29;101655.16;;;11.67;92.27
14089;BME280;7120;52.890;6.040;2022-10-13T04:51:12;101670.75;;;11.72;92.40
14089;BME280;7120;52.890;6.040;2022-10-13T04:53:39;101670.50;;;11.68;93.02
14089;BME280;7120;52.890;6.040;2022-10-13T04:56:09;101668.53;;;11.74;93.27
14089;BME280;7120;52.890;6.040;2022-10-13T04:58:36;101669.16;;;11.66;93.60
14089;BME280;7120;52.890;6.040;2022-10-13T05:01:03;101673.72;;;11.75;93.65
14089;BME280;7120;52.890;6.040;2022-10-13T05:03:29;101659.16;;;11.80;93.33
14089;BME280;7120;52.890;6.040;2022-10-13T05:05:54;101660.25;;;11.84;93.05
14089;BME280;7120;52.890;6.040;2022-10-13T05:08:20;101627.47;;;11.69;92.86
14089;BME280;7120;52.890;6.040;2022-10-13T05:10:56;101651.09;;;11.94;92.36
14089;BME280;7120;52.890;6.040;2022-10-13T05:13:22;101645.91;;;11.92;92.77
14089;BME280;7120;52.890;6.040;2022-10-13T05:15:47;101650.56;;;11.92;92.86
14089;BME280;7120;52.890;6.040;2022-10-13T05:18:13;101642.38;;;11.87;93.31
14089;BME280;7120;52.890;6.040;2022-10-13T05:20:38;101653.81;;;11.94;93.47
14089;BME280;7120;52.890;6.040;2022-10-13T05:23:03;101641.75;;;11.95;93.49
14089;BME280;7120;52.890;6.040;2022-10-13T05:25:29;101646.59;;;12.03;92.67
14089;BME280;7120;52.890;6.040;2022-10-13T05:27:54;101631.03;;;11.98;92.75
14089;BME280;7120;52.890;6.040;2022-10-13T05:30:19;101637.53;;;12.02;92.81
14089;BME280;7120;52.890;6.040;2022-10-13T05:32:45;101634.03;;;11.97;92.84
14089;BME280;7120;52.890;6.040;2022-10-13T05:35:10;101632.41;;;11.96;93.06
14089;BME280;7120;52.890;6.040;2022-10-13T05:37:35;101643.31;;;12.01;92.80
14089;BME280;7120;52.890;6.040;2022-10-13T05:40:01;101638.59;;;12.06;92.31
14089;BME280;7120;52.890;6.040;2022-10-13T05:42:27;101634.44;;;12.09;92.16
14089;BME280;7120;52.890;6.040;2022-10-13T05:44:53;101633.63;;;12.08;92.20
14089;BME280;7120;52.890;6.040;2022-10-13T05:47:19;101632.22;;;12.11;92.68
14089;BME280;7120;52.890;6.040;2022-10-13T05:49:44;101635.56;;;12.08;92.58
14089;BME280;7120;52.890;6.040;2022-10-13T05:52:10;101629.47;;;12.11;92.80
14089;BME280;7120;52.890;6.040;2022-10-13T05:54:40;101633.19;;;12.01;92.53
14089;BME280;7120;52.890;6.040;2022-10-13T05:57:20;101635.91;;;12.01;93.30
14089;BME280;7120;52.890;6.040;2022-10-13T05:59:57;101622.56;;;11.95;93.39
14089;BME280;7120;52.890;6.040;2022-10-13T06:02:25;101620.53;;;12.05;93.35
14089;BME280;7120;52.890;6.040;2022-10-13T06:04:54;101622.72;;;12.03;92.88
14089;BME280;7120;52.890;6.040;2022-10-13T06:07:21;101615.50;;;12.13;92.62
14089;BME280;7120;52.890;6.040;2022-10-13T06:09:47;101616.94;;;12.05;92.82
14089;BME280;7120;52.890;6.040;2022-10-13T06:12:13;101618.81;;;12.09;93.24
14089;BME280;7120;52.890;6.040;2022-10-13T06:14:39;101617.69;;;12.10;92.49
14089;BME280;7120;52.890;6.040;2022-10-13T06:17:05;101619.56;;;12.15;92.38
14089;BME280;7120;52.890;6.040;2022-10-13T06:19:31;101613.56;;;12.13;92.47
14089;BME280;7120;52.890;6.040;2022-10-13T06:21:56;101612.53;;;12.09;92.75
14089;BME280;7120;52.890;6.040;2022-10-13T06:24:21;101603.34;;;12.19;92.98
14089;BME280;7120;52.890;6.040;2022-10-13T06:26:46;101607.50;;;12.16;92.40
14089;BME280;7120;52.890;6.040;2022-10-13T06:29:12;101600.75;;;12.08;93.06
14089;BME280;7120;52.890;6.040;2022-10-13T06:31:37;101598.41;;;12.21;93.35
14089;BME280;7120;52.890;6.040;2022-10-13T06:34:03;101597.84;;;12.19;92.87
14089;BME280;7120;52.890;6.040;2022-10-13T06:36:29;101603.44;;;12.32;93.27
14089;BME280;7120;52.890;6.040;2022-10-13T06:38:54;101609.72;;;12.14;93.53
14089;BME280;7120;52.890;6.040;2022-10-13T06:41:19;101602.97;;;12.25;93.06
14089;BME280;7120;52.890;6.040;2022-10-13T06:43:45;101605.16;;;12.28;92.92
14089;BME280;7120;52.890;6.040;2022-10-13T06:46:11;101609.81;;;12.28;92.88
14089;BME280;7120;52.890;6.040;2022-10-13T06:48:36;101598.53;;;12.29;93.17
14089;BME280;7120;52.890;6.040;2022-10-13T06:51:06;101612.09;;;12.40;93.12
14089;BME280;7120;52.890;6.040;2022-10-13T06:53:32;101605.28;;;12.37;93.61
14089;BME280;7120;52.890;6.040;2022-10-13T06:55:59;101604.19;;;12.38;93.38
14089;BME280;7120;52.890;6.040;2022-10-13T06:58:25;101608.88;;;12.56;93.76
14089;BME280;7120;52.890;6.040;2022-10-13T07:00:51;101592.47;;;12.51;92.73
14089;BME280;7120;52.890;6.040;2022-10-13T07:03:17;101605.47;;;12.64;92.97
14089;BME280;7120;52.890;6.040;2022-10-13T07:05:42;101610.66;;;12.66;92.39
14089;BME280;7120;52.890;6.040;2022-10-13T07:08:07;101615.25;;;12.71;92.71
14089;BME280;7120;52.890;6.040;2022-10-13T07:10:33;101606.78;;;12.67;93.27
14089;BME280;7120;52.890;6.040;2022-10-13T07:12:58;101608.13;;;12.70;93.81
14089;BME280;7120;52.890;6.040;2022-10-13T07:15:23;101600.25;;;12.82;93.18
14089;BME280;7120;52.890;6.040;2022-10-13T07:17:50;101598.84;;;12.84;92.89
14089;BME280;7120;52.890;6.040;2022-10-13T07:20:18;101602.47;;;12.99;92.28
14089;BME280;7120;52.890;6.040;2022-10-13T07:22:43;101594.72;;;13.01;92.52
14089;BME280;7120;52.890;6.040;2022-10-13T07:25:09;101607.34;;;13.02;91.32
14089;BME280;7120;52.890;6.040;2022-10-13T07:27:35;101600.88;;;13.11;92.17
14089;BME280;7120;52.890;6.040;2022-10-13T07:30:03;101600.13;;;13.25;91.64
14089;BME280;7120;52.890;6.040;2022-10-13T07:32:28;101605.41;;;13.21;91.26
14089;BME280;7120;52.890;6.040;2022-10-13T07:34:53;101598.63;;;13.32;91.53
14089;BME280;7120;52.890;6.040;2022-10-13T07:37:19;101593.88;;;13.19;91.44
14089;BME280;7120;52.890;6.040;2022-10-13T07:39:44;101597.28;;;13.30;91.85
14089;BME280;7120;52.890;6.040;2022-10-13T07:42:09;101597.50;;;13.33;91.15
14089;BME280;7120;52.890;6.040;2022-10-13T07:44:35;101590.19;;;13.42;90.98
14089;BME280;7120;52.890;6.040;2022-10-13T07:47:00;101594.19;;;13.50;90.94
14089;BME280;7120;52.890;6.040;2022-10-13T07:49:26;101593.13;;;13.46;91.49
14089;BME280;7120;52.890;6.040;2022-10-13T07:51:51;101582.59;;;13.53;91.33
14089;BME280;7120;52.890;6.040;2022-10-13T07:54:17;101587.94;;;13.44;91.53
14089;BME280;7120;52.890;6.040;2022-10-13T07:56:43;101584.06;;;13.45;92.56
14089;BME280;7120;52.890;6.040;2022-10-13T07:59:08;101579.13;;;13.61;91.76
14089;BME280;7120;52.890;6.040;2022-10-13T08:01:34;101575.84;;;13.45;91.88
14089;BME280;7120;52.890;6.040;2022-10-13T08:03:59;101596.53;;;13.57;91.60
14089;BME280;7120;52.890;6.040;2022-10-13T08:06:25;101591.13;;;13.52;91.72
14089;BME280;7120;52.890;6.040;2022-10-13T08:08:50;101593.13;;;13.46;92.38
14089;BME280;7120;52.890;6.040;2022-10-13T08:11:16;101589.41;;;13.56;92.43
14089;BME280;7120;52.890;6.040;2022-10-13T08:13:48;101600.56;;;13.45;92.59
14089;BME280;7120;52.890;6.040;2022-10-13T08:16:14;101595.88;;;13.46;93.19
14089;BME280;7120;52.890;6.040;2022-10-13T08:18:40;101591.75;;;13.62;93.14
14089;BME280;7120;52.890;6.040;2022-10-13T08:21:05;101578.31;;;13.47;93.02
14089;BME280;7120;52.890;6.040;2022-10-13T08:23:33;101591.75;;;13.62;93.19
14089;BME280;7120;52.890;6.040;2022-10-13T08:25:58;101586.16;;;13.54;93.52
14089;BME280;7120;52.890;6.040;2022-10-13T08:28:26;101605.50;;;13.76;92.82
14089;BME280;7120;52.890;6.040;2022-10-13T08:30:52;101593.06;;;13.79;92.65
14089;BME280;7120;52.890;6.040;2022-10-13T08:33:18;101597.44;;;13.80;92.98
14089;BME280;7120;52.890;6.040;2022-10-13T08:35:44;101601.94;;;13.89;92.24
14089;BME280;7120;52.890;6.040;2022-10-13T08:38:10;101601.22;;;13.70;92.38
14089;BME280;7120;52.890;6.040;2022-10-13T08:40:37;101595.91;;;13.73;92.58
14089;BME280;7120;52.890;6.040;2022-10-13T08:43:07;101605.69;;;13.80;92.37
14089;BME280;7120;52.890;6.040;2022-10-13T08:45:32;101598.25;;;13.66;93.10
14089;BME280;7120;52.890;6.040;2022-10-13T08:47:59;101602.13;;;13.79;92.82
14089;BME280;7120;52.890;6.040;2022-10-13T08:50:28;101605.19;;;13.78;93.01
14089;BME280;7120;52.890;6.040;2022-10-13T08:53:01;101611.91;;;13.71;93.41
14089;BME280;7120;52.890;6.040;2022-10-13T08:55:28;101602.94;;;13.80;93.36
14089;BME280;7120;52.890;6.040;2022-10-13T08:57:57;101608.84;;;14.00;92.53
14089;BME280;7120;52.890;6.040;2022-10-13T09:00:22;101610.59;;;14.10;92.90
14089;BME280;7120;52.890;6.040;2022-10-13T09:02:49;101609.16;;;14.26;91.76
14089;BME280;7120;52.890;6.040;2022-10-13T09:05:24;101605.78;;;14.29;91.62
14089;BME280;7120;52.890;6.040;2022-10-13T09:07:52;101605.50;;;14.17;91.63
14089;BME280;7120;52.890;6.040;2022-10-13T09:10:18;101603.34;;;14.28;91.88
14089;BME280;7120;52.890;6.040;2022-10-13T09:12:44;101600.25;;;14.43;91.85
14089;BME280;7120;52.890;6.040;2022-10-13T09:15:10;101598.28;;;14.44;91.05
14089;BME280;7120;52.890;6.040;2022-10-13T09:17:39;101591.47;;;14.55;91.60
14089;BME280;7120;52.890;6.040;2022-10-13T09:20:22;101572.00;;;14.51;90.96
14089;BME280;7120;52.890;6.040;2022-10-13T09:23:01;101581.56;;;14.68;90.62
14089;BME280;7120;52.890;6.040;2022-10-13T09:25:27;101595.06;;;14.55;90.89
14089;BME280;7120;52.890;6.040;2022-10-13T09:27:58;101600.25;;;14.29;91.49
14089;BME280;7120;52.890;6.040;2022-10-13T09:33:14;101609.25;;;14.08;92.22
14089;BME280;7120;52.890;6.040;2022-10-13T09:35:47;101602.53;;;14.14;92.65
14089;BME280;7120;52.890;6.040;2022-10-13T09:38:21;101605.91;;;14.11;92.42
14089;BME280;7120;52.890;6.040;2022-10-13T09:41:03;101613.03;;;14.12;92.73
14089;BME280;7120;52.890;6.040;2022-10-13T09:43:31;101619.03;;;14.00;92.57
14089;BME280;7120;52.890;6.040;2022-10-13T09:45:57;101608.13;;;14.09;93.03
14089;BME280;7120;52.890;6.040;2022-10-13T09:48:29;101612.41;;;14.28;92.08
14089;BME280;7120;52.890;6.040;2022-10-13T09:50:56;101617.00;;;14.19;92.07
14089;BME280;7120;52.890;6.040;2022-10-13T09:53:38;101602.31;;;14.38;92.21
14089;BME280;7120;52.890;6.040;2022-10-13T09:58:36;101598.69;;;14.65;90.92
14089;BME280;7120;52.890;6.040;2022-10-13T10:01:03;101606.88;;;14.56;91.03
14089;BME280;7120;52.890;6.040;2022-10-13T10:03:31;101613.72;;;14.45;91.27
14089;BME280;7120;52.890;6.040;2022-10-13T10:06:00;101596.25;;;14.63;91.74
14089;BME280;7120;52.890;6.040;2022-10-13T10:08:43;101608.50;;;14.57;91.06
14089;BME280;7120;52.890;6.040;2022-10-13T10:11:16;101605.00;;;14.65;91.11
14089;BME280;7120;52.890;6.040;2022-10-13T10:13:42;101606.41;;;14.76;91.15
14089;BME280;7120;52.890;6.040;2022-10-13T10:18:50;101603.00;;;14.57;91.56
14089;BME280;7120;52.890;6.040;2022-10-13T10:21:33;101591.13;;;14.70;91.49
14089;BME280;7120;52.890;6.040;2022-10-13T10:29:31;101594.69;;;14.93;91.04
14089;BME280;7120;52.890;6.040;2022-10-13T10:34:58;101601.59;;;15.04;91.56
14089;BME280;7120;52.890;6.040;2022-10-13T10:45:49;101590.34;;;15.46;90.05
14089;BME280;7120;52.890;6.040;2022-10-13T10:48:32;101589.19;;;15.47;90.06
14089;BME280;7120;52.890;6.040;2022-10-13T10:50:59;101579.41;;;15.32;89.72
14089;BME280;7120;52.890;6.040;2022-10-13T10:56:18;101584.91;;;15.63;89.68
14089;BME280;7120;52.890;6.040;2022-10-13T10:58:48;101574.78;;;15.81;89.08
14089;BME280;7120;52.890;6.040;2022-10-13T11:01:38;101586.38;;;16.00;88.30
14089;BME280;7120;52.890;6.040;2022-10-13T11:04:45;101580.34;;;16.07;87.55
14089;BME280;7120;52.890;6.040;2022-10-13T11:12:45;101556.38;;;16.25;87.45
14089;BME280;7120;52.890;6.040;2022-10-13T11:15:29;101561.13;;;16.50;86.93
14089;BME280;7120;52.890;6.040;2022-10-13T11:21:05;101560.63;;;16.48;85.95
14089;BME280;7120;52.890;6.040;2022-10-13T11:23:32;101562.09;;;16.37;85.88
14089;BME280;7120;52.890;6.040;2022-10-13T11:28:49;101568.50;;;16.06;87.42
14089;BME280;7120;52.890;6.040;2022-10-13T11:40:00;101572.19;;;15.84;88.07
14089;BME280;7120;52.890;6.040;2022-10-13T11:51:05;101555.84;;;15.97;88.91
14089;BME280;7120;52.890;6.040;2022-10-13T11:55:50;101555.56;;;16.24;87.95
14089;BME280;7120;52.890;6.040;2022-10-13T12:01:09;101556.19;;;16.12;88.98
14089;BME280;7120;52.890;6.040;2022-10-13T12:03:41;101562.53;;;16.13;88.72
14089;BME280;7120;52.890;6.040;2022-10-13T12:08:48;101553.41;;;15.95;88.69
14089;BME280;7120;52.890;6.040;2022-10-13T12:11:24;101556.84;;;16.01;87.82
14089;BME280;7120;52.890;6.040;2022-10-13T12:13:51;101558.78;;;16.00;88.50
14089;BME280;7120;52.890;6.040;2022-10-13T12:16:17;101548.69;;;15.96;88.28
14089;BME280;7120;52.890;6.040;2022-10-13T12:18:42;101552.88;;;15.84;88.82
14089;BME280;7120;52.890;6.040;2022-10-13T12:23:35;101549.22;;;16.15;87.31
14089;BME280;7120;52.890;6.040;2022-10-13T12:26:00;101532.34;;;16.16;87.95
14089;BME280;7120;52.890;6.040;2022-10-13T12:28:45;101544.69;;;16.28;87.24
14089;BME280;7120;52.890;6.040;2022-10-13T12:31:24;101533.00;;;16.22;87.27
14089;BME280;7120;52.890;6.040;2022-10-13T12:33:58;101538.50;;;16.13;86.45
14089;BME280;7120;52.890;6.040;2022-10-13T12:36:33;101531.22;;;16.17;87.06
14089;BME280;7120;52.890;6.040;2022-10-13T12:39:19;101527.50;;;16.22;87.10
14089;BME280;7120;52.890;6.040;2022-10-13T12:41:46;101523.25;;;16.33;88.00
14089;BME280;7120;52.890;6.040;2022-10-13T12:44:19;101520.00;;;16.31;86.57
14089;BME280;7120;52.890;6.040;2022-10-13T12:46:48;101512.72;;;16.53;86.69
14089;BME280;7120;52.890;6.040;2022-10-13T12:51:50;101515.97;;;16.46;85.23
14089;BME280;7120;52.890;6.040;2022-10-13T12:54:28;101519.88;;;16.71;86.47
14089;BME280;7120;52.890;6.040;2022-10-13T12:57:00;101523.41;;;16.63;84.99
14089;BME280;7120;52.890;6.040;2022-10-13T12:59:28;101523.41;;;16.63;86.12
14089;BME280;7120;52.890;6.040;2022-10-13T13:09:27;101514.16;;;16.76;85.52
14089;BME280;7120;52.890;6.040;2022-10-13T13:14:39;101522.75;;;16.48;84.97
14089;BME280;7120;52.890;6.040;2022-10-13T13:19:42;101523.59;;;16.75;86.51
14089;BME280;7120;52.890;6.040;2022-10-13T13:22:07;101517.56;;;16.82;85.90
14089;BME280;7120;52.890;6.040;2022-10-13T13:24:33;101519.69;;;16.76;85.92
14089;BME280;7120;52.890;6.040;2022-10-13T13:27:05;101518.84;;;16.84;84.78
14089;BME280;7120;52.890;6.040;2022-10-13T13:29:34;101519.19;;;17.00;84.30
14089;BME280;7120;52.890;6.040;2022-10-13T13:32:00;101517.09;;;16.80;83.99
14089;BME280;7120;52.890;6.040;2022-10-13T13:34:25;101524.72;;;16.65;84.60
14089;BME280;7120;52.890;6.040;2022-10-13T13:36:50;101515.16;;;16.71;84.85
14089;BME280;7120;52.890;6.040;2022-10-13T13:39:16;101517.75;;;16.59;85.24
14089;BME280;7120;52.890;6.040;2022-10-13T13:41:42;101515.13;;;16.63;85.38
14089;BME280;7120;52.890;6.040;2022-10-13T13:44:08;101511.06;;;16.60;85.56
14089;BME280;7120;52.890;6.040;2022-10-13T13:46:33;101516.75;;;16.46;85.10
14089;BME280;7120;52.890;6.040;2022-10-13T13:48:59;101528.31;;;16.57;85.56
14089;BME280;7120;52.890;6.040;2022-10-13T13:51:26;101524.09;;;16.51;85.61
14089;BME280;7120;52.890;6.040;2022-10-13T13:53:51;101515.31;;;16.58;85.62
14089;BME280;7120;52.890;6.040;2022-10-13T13:56:18;101518.06;;;16.75;85.97
14089;BME280;7120;52.890;6.040;2022-10-13T13:58:44;101519.66;;;17.02;85.85
14089;BME280;7120;52.890;6.040;2022-10-13T14:01:10;101500.81;;;16.95;84.87
14089;BME280;7120;52.890;6.040;2022-10-13T14:03:37;101514.97;;;16.77;83.46
14089;BME280;7120;52.890;6.040;2022-10-13T14:06:02;101510.09;;;16.82;85.37
14089;BME280;7120;52.890;6.040;2022-10-13T14:08:32;101503.56;;;16.95;83.12
14089;BME280;7120;52.890;6.040;2022-10-13T14:10:58;101504.03;;;16.97;83.51
14089;BME280;7120;52.890;6.040;2022-10-13T14:13:23;101499.72;;;16.79;82.08
14089;BME280;7120;52.890;6.040;2022-10-13T14:15:57;101510.44;;;16.46;83.60
14089;BME280;7120;52.890;6.040;2022-10-13T14:18:23;101507.19;;;16.53;84.56
14089;BME280;7120;52.890;6.040;2022-10-13T14:20:48;101507.34;;;16.30;84.77
14089;BME280;7120;52.890;6.040;2022-10-13T14:23:14;101511.88;;;16.26;85.18
14089;BME280;7120;52.890;6.040;2022-10-13T14:25:39;101511.72;;;16.40;84.46
14089;BME280;7120;52.890;6.040;2022-10-13T14:28:04;101493.72;;;16.25;84.32
14089;BME280;7120;52.890;6.040;2022-10-13T14:30:30;101493.53;;;16.04;84.61
14089;BME280;7120;52.890;6.040;2022-10-13T14:32:55;101494.66;;;16.20;84.35
14089;BME280;7120;52.890;6.040;2022-10-13T14:35:20;101498.56;;;16.54;84.42
14089;BME280;7120;52.890;6.040;2022-10-13T14:37:46;101495.66;;;16.59;84.13
14089;BME280;7120;52.890;6.040;2022-10-13T14:40:11;101485.59;;;16.46;84.53
14089;BME280;7120;52.890;6.040;2022-10-13T14:42:36;101489.97;;;16.47;83.84
14089;BME280;7120;52.890;6.040;2022-10-13T14:45:04;101479.88;;;16.60;83.06
14089;BME280;7120;52.890;6.040;2022-10-13T14:47:30;101480.56;;;16.57;81.73
14089;BME280;7120;52.890;6.040;2022-10-13T14:49:56;101487.03;;;16.78;82.99
14089;BME280;7120;52.890;6.040;2022-10-13T14:52:21;101487.22;;;16.73;83.17
14089;BME280;7120;52.890;6.040;2022-10-13T14:54:47;101482.47;;;16.65;81.72